weather.gov     
National Weather Service

Terminal Aerodrome Forecast
NWS Homepage
This page is being discontinued on March 12, 2014.
The same data is available at this site. Please update your bookmarks.
Thank you, and we apologize for the inconvenience.
Please send an email to SR-SRH.Webmaster@noaa.gov with any concerns.


Current Version
Previous Version:    01  02  03  04  05  06  07  08  09  10  11  12  13  14  15  16  17  18  19  
[Printable]
395
FTUS46 KHNX 311744
TAFMCE
TAF
KMCE 311744Z 3118/0118 VRB04KT P6SM FEW120 BKN200
     FM312000 29006KT P6SM SCT030 BKN050 OVC100
      TEMPO 3121/0101 -RA BKN030
     FM010200 16010KT 4SM -RA SCT015 OVC030
      TEMPO 0102/0106 2SM TSRA BKN020CB
     FM010600 12007KT 4SM -RA BR OVC050
      TEMPO 0106/0110 1 1/2SM RA BR BKN025
     FM011000 14005KT 4SM -RA BR BKN030 OVC050
     FM011500 VRB04KT P6SM VCSH BKN035=


395
FTUS46 KHNX 311744
TAFMCE
TAF
KMCE 311744Z 3118/0118 VRB04KT P6SM FEW120 BKN200
     FM312000 29006KT P6SM SCT030 BKN050 OVC100
      TEMPO 3121/0101 -RA BKN030
     FM010200 16010KT 4SM -RA SCT015 OVC030
      TEMPO 0102/0106 2SM TSRA BKN020CB
     FM010600 12007KT 4SM -RA BR OVC050
      TEMPO 0106/0110 1 1/2SM RA BR BKN025
     FM011000 14005KT 4SM -RA BR BKN030 OVC050
     FM011500 VRB04KT P6SM VCSH BKN035=




U.S. Dept. of Commerce
NOAA National Weather Service
1325 East West Highway
Silver Spring, MD 20910
E-mail: w-nws.webmaster@noaa.gov
Page last modified: May 16, 2007
NATIONAL WEATHER SERVICE: for Safety, for Work, for Fun - FOR LIFE